Time;durP1;ratioP1;P1;durP2;ratioP2;P2;SDS_P1;SDS_P2;PMS_P1;PMS_P2;Temp;Humidity;BMP_temperature;BMP_pressure;BME280_temperature;BME280_humidity;BME280_pressure;Samples;Min_cycle;Max_cycle;Signal;HPM_P1;HPM_P2
2022/01/19 00:01:17;;;;;;;;;;;10.40;58.50;;;;;;5044951;28;20280;-90
2022/01/19 00:03:43;;;;;;;;;;;10.30;58.30;;;;;;5054342;28;19920;-90
2022/01/19 00:06:09;;;;;;;;;;;10.20;58.50;;;;;;5034620;28;19913;-91
2022/01/19 00:08:35;;;;;;;;;;;10.10;58.30;;;;;;5034405;28;20391;-89
2022/01/19 00:11:01;;;;;;;;;;;10.00;58.10;;;;;;5034451;28;19917;-89
2022/01/19 00:13:26;;;;;;;;;;;9.90;57.90;;;;;;5044565;28;20411;-89
2022/01/19 00:15:52;;;;;;;;;;;9.80;57.80;;;;;;5053044;28;19913;-89
2022/01/19 00:18:19;;;;;;;;;;;9.70;57.80;;;;;;5053722;28;20261;-89
2022/01/19 00:20:45;;;;;;;;;;;9.60;58.20;;;;;;5052516;28;20400;-90
2022/01/19 00:23:11;;;;;;;;;;;9.50;58.30;;;;;;5043873;28;19924;-90
2022/01/19 00:25:37;;;;;;;;;;;9.40;58.20;;;;;;5030919;28;19928;-90
2022/01/19 00:28:03;;;;;;;;;;;9.30;58.30;;;;;;5032818;28;20000;-89
2022/01/19 00:30:28;;;;;;;;;;;9.30;58.30;;;;;;5053885;28;19921;-89
2022/01/19 00:32:54;;;;;;;;;;;9.20;58.40;;;;;;5047834;28;20385;-89
2022/01/19 00:35:19;;;;;;;;;;;9.00;58.00;;;;;;5023426;28;19917;-90
2022/01/19 00:37:45;;;;;;;;;;;9.00;57.90;;;;;;5037836;28;19947;-91
2022/01/19 00:40:12;;;;;;;;;;;8.80;58.00;;;;;;5023074;28;19970;-90
2022/01/19 00:42:38;;;;;;;;;;;8.80;58.30;;;;;;5022338;28;19941;-90
2022/01/19 00:45:04;;;;;;;;;;;8.70;58.30;;;;;;5039276;28;19963;-90
2022/01/19 00:47:30;;;;;;;;;;;8.70;58.60;;;;;;5021180;28;19917;-90
2022/01/19 00:49:55;;;;;;;;;;;8.60;58.70;;;;;;5021533;28;19936;-90
2022/01/19 00:52:21;;;;;;;;;;;8.50;58.60;;;;;;5039401;28;19913;-91
2022/01/19 00:54:47;;;;;;;;;;;8.40;58.70;;;;;;5021341;28;19913;-91
2022/01/19 00:57:12;;;;;;;;;;;8.40;58.80;;;;;;5020053;28;19921;-91
2022/01/19 00:59:39;;;;;;;;;;;8.30;59.00;;;;;;5019916;28;19925;-90
2022/01/19 01:02:05;;;;;;;;;;;8.30;59.20;;;;;;5022809;28;19913;-91
2022/01/19 01:04:32;;;;;;;;;;;8.20;59.30;;;;;;5022192;28;19921;-91
2022/01/19 01:06:58;;;;;;;;;;;8.20;59.20;;;;;;5017977;28;19924;-90
2022/01/19 01:09:24;;;;;;;;;;;8.20;58.80;;;;;;5030204;28;19921;-90
2022/01/19 01:17:12;;;;;;;;;;;8.00;57.90;;;;;;5034182;28;19936;-90
2022/01/19 01:19:38;;;;;;;;;;;7.80;57.80;;;;;;5015799;28;20287;-90
2022/01/19 01:22:04;;;;;;;;;;;7.80;57.70;;;;;;5027053;28;19977;-91
2022/01/19 01:24:29;;;;;;;;;;;7.70;57.90;;;;;;5017626;28;19940;-90
2022/01/19 01:26:55;;;;;;;;;;;7.60;58.40;;;;;;5047362;28;19987;-90
2022/01/19 01:29:22;;;;;;;;;;;7.60;58.50;;;;;;5016012;28;19971;-90
2022/01/19 01:31:48;;;;;;;;;;;7.60;58.40;;;;;;5031151;28;19975;-91
2022/01/19 01:34:13;;;;;;;;;;;7.50;58.40;;;;;;5042518;28;19912;-90
2022/01/19 01:36:39;;;;;;;;;;;7.40;58.50;;;;;;5034843;28;20304;-91
2022/01/19 01:39:04;;;;;;;;;;;7.40;58.50;;;;;;5024946;28;20339;-93
2022/01/19 01:41:30;;;;;;;;;;;7.30;58.40;;;;;;5036992;28;19920;-92
2022/01/19 01:43:56;;;;;;;;;;;7.30;58.20;;;;;;5037030;28;19935;-92
2022/01/19 01:46:34;;;;;;;;;;;7.10;57.80;;;;;;5021150;28;19893;-92
2022/01/19 01:48:59;;;;;;;;;;;7.10;57.60;;;;;;5021472;28;20365;-93
2022/01/19 01:54:09;;;;;;;;;;;6.90;57.50;;;;;;5038828;28;20447;-90
2022/01/19 01:56:34;;;;;;;;;;;6.80;57.70;;;;;;5018258;28;19913;-90
2022/01/19 01:59:00;;;;;;;;;;;6.80;57.90;;;;;;5052099;28;20007;-90
2022/01/19 02:01:25;;;;;;;;;;;6.70;58.10;;;;;;5035264;28;20425;-89
2022/01/19 02:03:51;;;;;;;;;;;6.70;58.30;;;;;;5017124;28;19929;-89
2022/01/19 02:08:47;;;;;;;;;;;6.60;58.70;;;;;;5035007;28;20309;-89
2022/01/19 02:16:51;;;;;;;;;;;6.50;58.00;;;;;;5043084;28;19923;-90
2022/01/19 02:22:03;;;;;;;;;;;6.30;57.90;;;;;;5044654;28;19933;-90
2022/01/19 02:24:42;;;;;;;;;;;6.30;58.10;;;;;;5012887;28;19925;-90
2022/01/19 02:40:14;;;;;;;;;;;5.90;57.60;;;;;;5050637;28;19969;-91
2022/01/19 02:42:52;;;;;;;;;;;5.80;57.80;;;;;;5036679;28;19970;-91
2022/01/19 02:50:27;;;;;;;;;;;5.70;58.60;;;;;;5055789;28;19924;-90
2022/01/19 02:52:53;;;;;;;;;;;5.70;58.80;;;;;;5036736;28;19913;-91
2022/01/19 02:55:19;;;;;;;;;;;5.80;58.70;;;;;;5054327;28;19999;-91
2022/01/19 02:57:46;;;;;;;;;;;5.70;58.50;;;;;;5036411;28;19919;-91
2022/01/19 03:08:45;;;;;;;;;;;5.50;59.40;;;;;;5034411;28;19988;-91
2022/01/19 03:11:11;;;;;;;;;;;5.50;59.70;;;;;;5024773;28;19974;-91
2022/01/19 03:13:37;;;;;;;;;;;5.50;59.60;;;;;;5045715;28;19913;-91
2022/01/19 03:16:02;;;;;;;;;;;5.50;59.30;;;;;;5031458;28;19920;-91
2022/01/19 03:18:28;;;;;;;;;;;5.50;59.20;;;;;;5036847;28;20428;-91
2022/01/19 03:20:53;;;;;;;;;;;5.50;59.20;;;;;;5019371;28;19917;-91
2022/01/19 03:23:22;;;;;;;;;;;5.40;59.00;;;;;;5014792;28;19913;-91
2022/01/19 03:25:48;;;;;;;;;;;5.40;58.80;;;;;;5031966;28;20451;-91
2022/01/19 03:28:14;;;;;;;;;;;5.40;58.80;;;;;;5015088;28;19913;-91
2022/01/19 03:30:39;;;;;;;;;;;5.30;58.70;;;;;;5013947;28;19929;-91
2022/01/19 03:33:05;;;;;;;;;;;5.30;58.60;;;;;;5014912;28;19913;-91
2022/01/19 03:35:31;;;;;;;;;;;5.30;58.50;;;;;;5018910;28;20394;-90
2022/01/19 03:37:56;;;;;;;;;;;5.20;58.20;;;;;;5017682;28;19917;-90
2022/01/19 03:40:22;;;;;;;;;;;5.20;58.50;;;;;;5035360;28;19924;-91
2022/01/19 03:42:48;;;;;;;;;;;5.20;58.90;;;;;;5018247;28;19963;-92
2022/01/19 03:45:13;;;;;;;;;;;5.20;59.50;;;;;;5036096;28;19917;-91
2022/01/19 03:47:43;;;;;;;;;;;5.20;59.90;;;;;;5017538;28;19909;-90
2022/01/19 03:50:09;;;;;;;;;;;5.20;59.70;;;;;;5018547;28;20319;-90
2022/01/19 03:52:34;;;;;;;;;;;5.30;59.20;;;;;;5035032;28;19909;-92
2022/01/19 03:55:00;;;;;;;;;;;5.20;58.60;;;;;;5020288;28;19928;-91
2022/01/19 03:57:26;;;;;;;;;;;5.20;58.20;;;;;;5037323;28;19919;-91
2022/01/19 03:59:51;;;;;;;;;;;5.10;58.00;;;;;;5019030;28;19913;-91
2022/01/19 04:02:19;;;;;;;;;;;5.10;57.70;;;;;;5036201;28;19913;-90
2022/01/19 04:04:50;;;;;;;;;;;5.00;57.50;;;;;;5031664;28;19925;-91
2022/01/19 04:07:16;;;;;;;;;;;4.90;57.50;;;;;;5038258;28;19931;-90
2022/01/19 04:09:43;;;;;;;;;;;4.90;57.50;;;;;;5040086;28;20011;-89
2022/01/19 04:12:13;;;;;;;;;;;4.90;57.80;;;;;;5026388;28;20016;-91
2022/01/19 04:14:39;;;;;;;;;;;4.90;58.00;;;;;;5048344;28;19922;-90
2022/01/19 04:17:07;;;;;;;;;;;4.80;58.20;;;;;;5035679;28;19939;-89
2022/01/19 04:19:44;;;;;;;;;;;4.90;58.10;;;;;;5037369;28;19916;-91
2022/01/19 04:22:13;;;;;;;;;;;4.80;58.10;;;;;;5039560;28;19919;-90
2022/01/19 04:24:39;;;;;;;;;;;4.80;58.20;;;;;;5020991;28;19927;-90
2022/01/19 04:29:48;;;;;;;;;;;4.90;58.80;;;;;;5055878;28;19917;-90
2022/01/19 04:32:18;;;;;;;;;;;4.90;59.00;;;;;;5033756;28;19921;-90
2022/01/19 04:34:46;;;;;;;;;;;4.90;59.00;;;;;;5037404;28;19915;-90
2022/01/19 05:01:47;;;;;;;;;;;4.60;58.60;;;;;;5049878;28;20447;-92
2022/01/19 05:04:28;;;;;;;;;;;4.60;58.50;;;;;;5053241;28;19909;-90
2022/01/19 05:07:08;;;;;;;;;;;4.60;58.50;;;;;;5023511;28;20329;-91
2022/01/19 05:14:43;;;;;;;;;;;4.70;59.40;;;;;;5040073;28;20016;-91
2022/01/19 05:17:08;;;;;;;;;;;4.70;59.80;;;;;;5026234;28;20427;-90
2022/01/19 05:19:34;;;;;;;;;;;4.80;60.10;;;;;;5026037;28;19925;-90
2022/01/19 05:21:59;;;;;;;;;;;4.80;60.50;;;;;;5031630;28;19924;-91
2022/01/19 05:24:25;;;;;;;;;;;4.90;60.50;;;;;;5030339;28;19928;-91
2022/01/19 05:26:52;;;;;;;;;;;5.00;60.80;;;;;;5034699;28;19979;-91
2022/01/19 05:29:17;;;;;;;;;;;5.10;61.00;;;;;;5056350;28;19917;-91
2022/01/19 05:31:43;;;;;;;;;;;5.10;61.20;;;;;;5042346;28;19912;-90
2022/01/19 05:34:09;;;;;;;;;;;5.20;61.30;;;;;;5040561;28;19977;-91
2022/01/19 05:36:34;;;;;;;;;;;5.30;61.30;;;;;;5059403;28;19920;-90
2022/01/19 05:39:06;;;;;;;;;;;5.40;61.00;;;;;;5024839;28;19927;-91
2022/01/19 05:41:32;;;;;;;;;;;5.50;60.80;;;;;;5007368;28;20412;-91
2022/01/19 05:43:58;;;;;;;;;;;5.50;60.70;;;;;;5052637;28;20372;-91
2022/01/19 05:46:23;;;;;;;;;;;5.60;60.70;;;;;;5035699;28;19917;-90
2022/01/19 05:48:49;;;;;;;;;;;5.60;60.90;;;;;;5040080;28;19928;-91
2022/01/19 05:51:14;;;;;;;;;;;5.70;61.00;;;;;;5028773;28;19917;-91
2022/01/19 05:53:40;;;;;;;;;;;5.80;61.20;;;;;;5020669;28;20025;-90
2022/01/19 05:56:06;;;;;;;;;;;5.80;61.60;;;;;;5003616;28;19913;-90
2022/01/19 05:58:32;;;;;;;;;;;5.90;61.90;;;;;;5050480;28;19928;-90
2022/01/19 06:00:57;;;;;;;;;;;6.00;62.00;;;;;;5039492;28;19916;-91
2022/01/19 06:03:22;;;;;;;;;;;6.00;61.90;;;;;;5033838;28;20373;-90
2022/01/19 06:05:48;;;;;;;;;;;6.10;61.70;;;;;;5036957;28;19913;-91
2022/01/19 06:10:45;;;;;;;;;;;6.20;61.40;;;;;;5056258;28;19909;-89
2022/01/19 06:13:16;;;;;;;;;;;6.20;61.30;;;;;;5066006;28;19981;-89
2022/01/19 06:15:41;;;;;;;;;;;6.30;60.90;;;;;;5055148;28;19919;-92
2022/01/19 06:18:07;;;;;;;;;;;6.30;60.80;;;;;;5035342;28;19922;-90
2022/01/19 06:20:32;;;;;;;;;;;6.30;60.70;;;;;;5033003;28;20031;-91
2022/01/19 06:22:58;;;;;;;;;;;6.40;61.00;;;;;;5022718;28;20268;-88
2022/01/19 06:25:23;;;;;;;;;;;6.40;61.00;;;;;;5040756;28;19913;-89
2022/01/19 06:27:49;;;;;;;;;;;6.40;60.70;;;;;;5057195;28;19924;-89
2022/01/19 06:30:15;;;;;;;;;;;6.40;60.70;;;;;;5046630;28;20340;-88
2022/01/19 06:32:40;;;;;;;;;;;6.40;60.80;;;;;;5018647;28;19925;-88
2022/01/19 06:35:07;;;;;;;;;;;6.40;60.50;;;;;;5029003;28;20379;-89
2022/01/19 06:37:32;;;;;;;;;;;6.40;60.40;;;;;;5024193;28;19917;-89
2022/01/19 06:39:58;;;;;;;;;;;6.40;60.90;;;;;;5044825;28;19920;-89
2022/01/19 06:42:23;;;;;;;;;;;6.40;60.70;;;;;;5040478;28;19963;-89
2022/01/19 06:44:51;;;;;;;;;;;6.40;60.50;;;;;;5025680;28;19921;-88
2022/01/19 06:47:17;;;;;;;;;;;6.50;60.50;;;;;;5022344;28;19913;-89
2022/01/19 06:49:43;;;;;;;;;;;6.50;60.50;;;;;;5023538;28;20019;-87
2022/01/19 06:52:08;;;;;;;;;;;6.60;60.70;;;;;;5020569;28;19919;-88
2022/01/19 06:54:34;;;;;;;;;;;6.70;60.80;;;;;;5032961;28;20519;-88
2022/01/19 06:56:59;;;;;;;;;;;6.80;61.00;;;;;;5032678;28;19920;-89
2022/01/19 06:59:24;;;;;;;;;;;6.80;61.00;;;;;;5034261;28;19921;-88
2022/01/19 07:01:50;;;;;;;;;;;6.90;61.00;;;;;;5055110;28;19913;-88
2022/01/19 07:04:17;;;;;;;;;;;7.00;61.00;;;;;;5034576;28;19929;-89
2022/01/19 07:06:42;;;;;;;;;;;7.10;61.00;;;;;;5038711;28;20021;-89
2022/01/19 07:09:08;;;;;;;;;;;7.20;60.90;;;;;;5017773;28;19948;-89
2022/01/19 07:11:36;;;;;;;;;;;7.20;61.00;;;;;;5025438;28;19916;-88
2022/01/19 07:14:01;;;;;;;;;;;7.30;61.00;;;;;;5017577;28;19921;-88
2022/01/19 07:16:27;;;;;;;;;;;7.40;61.20;;;;;;5034999;28;19909;-88
2022/01/19 07:18:52;;;;;;;;;;;7.50;61.10;;;;;;5022419;28;19995;-90
2022/01/19 07:21:18;;;;;;;;;;;7.50;61.10;;;;;;5027195;28;20353;-90
2022/01/19 07:23:43;;;;;;;;;;;7.60;61.10;;;;;;5025632;28;20015;-89
2022/01/19 07:26:09;;;;;;;;;;;7.70;61.20;;;;;;5017277;28;19959;-89
2022/01/19 07:28:34;;;;;;;;;;;7.70;61.20;;;;;;5037684;28;20026;-92
2022/01/19 07:31:00;;;;;;;;;;;7.80;61.30;;;;;;5038582;28;19917;-91
2022/01/19 07:33:25;;;;;;;;;;;7.90;61.30;;;;;;5028010;28;19932;-92
2022/01/19 07:35:51;;;;;;;;;;;8.00;61.50;;;;;;5023618;28;19939;-89
2022/01/19 07:38:17;;;;;;;;;;;8.10;61.80;;;;;;5023791;28;20019;-89
2022/01/19 07:40:43;;;;;;;;;;;8.20;61.90;;;;;;5039164;28;19941;-91
2022/01/19 07:43:08;;;;;;;;;;;8.30;62.00;;;;;;5020609;28;19917;-88
2022/01/19 07:45:34;;;;;;;;;;;8.40;61.80;;;;;;5044832;28;19948;-87
2022/01/19 07:47:59;;;;;;;;;;;8.40;61.90;;;;;;5025549;28;19917;-88
2022/01/19 07:50:25;;;;;;;;;;;8.50;62.00;;;;;;5024472;28;19913;-88
2022/01/19 07:52:51;;;;;;;;;;;8.60;62.00;;;;;;5060213;28;19939;-87
2022/01/19 07:55:31;;;;;;;;;;;8.60;62.10;;;;;;5057377;28;19908;-87
2022/01/19 07:57:56;;;;;;;;;;;8.70;62.20;;;;;;5034600;28;20011;-88
2022/01/19 08:00:22;;;;;;;;;;;8.70;62.30;;;;;;5040442;28;19963;-88
2022/01/19 08:02:49;;;;;;;;;;;8.80;62.30;;;;;;5055946;28;20002;-88
2022/01/19 08:05:15;;;;;;;;;;;8.90;62.40;;;;;;5025549;28;19912;-88
2022/01/19 08:07:41;;;;;;;;;;;8.90;62.50;;;;;;5019785;28;19920;-89
2022/01/19 08:10:07;;;;;;;;;;;9.00;62.50;;;;;;5068668;28;19917;-88
2022/01/19 08:12:33;;;;;;;;;;;9.10;62.40;;;;;;5077124;28;20006;-88
2022/01/19 08:14:59;;;;;;;;;;;9.10;62.50;;;;;;5036003;28;19935;-87
2022/01/19 08:17:26;;;;;;;;;;;9.20;62.60;;;;;;5036933;28;20705;-86
2022/01/19 08:19:52;;;;;;;;;;;9.20;62.50;;;;;;5048239;28;21237;-87
2022/01/19 08:22:17;;;;;;;;;;;9.30;62.50;;;;;;5026106;28;19913;-87
2022/01/19 08:24:43;;;;;;;;;;;9.30;62.60;;;;;;5037721;28;19913;-87
2022/01/19 08:27:08;;;;;;;;;;;9.40;62.60;;;;;;5024425;28;20431;-87
2022/01/19 08:29:34;;;;;;;;;;;9.40;62.40;;;;;;5031510;28;19917;-87
2022/01/19 08:31:59;;;;;;;;;;;9.50;62.30;;;;;;5033500;28;19920;-88
2022/01/19 08:34:25;;;;;;;;;;;9.50;62.30;;;;;;5026059;28;19913;-87
2022/01/19 08:36:50;;;;;;;;;;;9.50;62.40;;;;;;5051906;28;19917;-87
2022/01/19 08:39:16;;;;;;;;;;;9.60;62.40;;;;;;5039138;28;19923;-89
2022/01/19 08:41:41;;;;;;;;;;;9.60;62.40;;;;;;5030179;28;19917;-88
2022/01/19 08:44:07;;;;;;;;;;;9.60;62.50;;;;;;5036498;28;19917;-88
2022/01/19 08:46:32;;;;;;;;;;;9.70;62.50;;;;;;5023980;28;20458;-88
2022/01/19 08:48:58;;;;;;;;;;;9.70;62.50;;;;;;5036027;28;19917;-88
2022/01/19 08:51:23;;;;;;;;;;;9.80;62.60;;;;;;5023898;28;20026;-88
2022/01/19 08:53:49;;;;;;;;;;;9.80;62.70;;;;;;5028080;28;19913;-89
2022/01/19 08:56:14;;;;;;;;;;;9.90;62.60;;;;;;5024374;28;19913;-88
2022/01/19 08:58:40;;;;;;;;;;;9.90;62.50;;;;;;5052446;28;20126;-88
2022/01/19 09:01:05;;;;;;;;;;;10.00;62.30;;;;;;5028459;28;19913;-89
2022/01/19 09:03:31;;;;;;;;;;;10.00;62.30;;;;;;5037526;28;19913;-89
2022/01/19 09:05:56;;;;;;;;;;;9.90;62.30;;;;;;5019188;28;19940;-89
2022/01/19 09:08:22;;;;;;;;;;;9.90;62.30;;;;;;5062939;28;19920;-89
2022/01/19 09:10:50;;;;;;;;;;;9.90;62.30;;;;;;5038771;28;19980;-87
2022/01/19 09:13:16;;;;;;;;;;;10.00;62.40;;;;;;5052134;28;19921;-88
2022/01/19 09:15:41;;;;;;;;;;;10.00;62.40;;;;;;5042637;28;19931;-88
2022/01/19 09:18:07;;;;;;;;;;;10.00;62.50;;;;;;5021275;28;19925;-88
2022/01/19 09:20:33;;;;;;;;;;;10.10;62.50;;;;;;5026749;28;19909;-88
2022/01/19 09:22:59;;;;;;;;;;;10.10;62.50;;;;;;5024636;28;19917;-88
2022/01/19 09:25:24;;;;;;;;;;;10.10;62.40;;;;;;5045567;28;19963;-88
2022/01/19 09:27:49;;;;;;;;;;;10.20;62.30;;;;;;5025035;28;19917;-88
2022/01/19 09:30:16;;;;;;;;;;;10.20;62.50;;;;;;5021547;28;19910;-89
2022/01/19 09:32:44;;;;;;;;;;;10.20;62.30;;;;;;5034625;28;20403;-89
2022/01/19 09:35:10;;;;;;;;;;;10.20;62.20;;;;;;5037175;28;19915;-88
2022/01/19 09:37:37;;;;;;;;;;;10.30;62.20;;;;;;5042950;28;19917;-88
2022/01/19 09:40:06;;;;;;;;;;;10.20;62.20;;;;;;5027892;28;20439;-88
2022/01/19 09:42:32;;;;;;;;;;;10.30;62.30;;;;;;5023802;28;19909;-88
2022/01/19 09:45:01;;;;;;;;;;;10.30;62.30;;;;;;5029088;28;19916;-96
2022/01/19 09:47:26;;;;;;;;;;;10.30;62.30;;;;;;5040751;28;20423;-89
2022/01/19 09:49:52;;;;;;;;;;;10.30;62.30;;;;;;5022033;28;19921;-88
2022/01/19 09:52:17;;;;;;;;;;;10.30;62.30;;;;;;5028464;28;19917;-88
2022/01/19 09:54:43;;;;;;;;;;;10.40;62.30;;;;;;5052235;28;19956;-89
2022/01/19 09:57:08;;;;;;;;;;;10.40;62.20;;;;;;5047617;28;19920;-89
2022/01/19 09:59:34;;;;;;;;;;;10.50;62.20;;;;;;5042189;28;19917;-88
2022/01/19 10:02:04;;;;;;;;;;;10.50;62.10;;;;;;5050487;28;19924;-89
2022/01/19 10:04:31;;;;;;;;;;;10.50;62.20;;;;;;5036709;28;20006;-89
2022/01/19 10:07:09;;;;;;;;;;;10.60;62.30;;;;;;5031783;28;19927;-88
2022/01/19 10:09:45;;;;;;;;;;;10.70;62.40;;;;;;5026253;28;19917;-89
2022/01/19 10:17:28;;;;;;;;;;;10.80;62.40;;;;;;5042637;28;19916;-88
2022/01/19 10:19:53;;;;;;;;;;;10.90;62.40;;;;;;5031606;28;20364;-90
2022/01/19 10:22:25;;;;;;;;;;;10.90;62.20;;;;;;5022386;28;19959;-87
2022/01/19 10:25:02;;;;;;;;;;;11.00;62.40;;;;;;5044527;28;19925;-87
2022/01/19 10:27:31;;;;;;;;;;;11.00;62.40;;;;;;5042666;28;19913;-88
2022/01/19 10:30:02;;;;;;;;;;;11.10;62.40;;;;;;5017396;28;19924;-89
2022/01/19 10:32:29;;;;;;;;;;;11.10;62.00;;;;;;5022012;28;20016;-89
2022/01/19 10:34:54;;;;;;;;;;;11.10;61.80;;;;;;5018023;28;20348;-90
2022/01/19 10:37:23;;;;;;;;;;;11.10;61.80;;;;;;5027606;28;19913;-89
2022/01/19 10:39:54;;;;;;;;;;;11.10;61.50;;;;;;5024779;28;20045;-89
2022/01/19 10:42:20;;;;;;;;;;;11.10;61.80;;;;;;5040731;28;19951;-88
2022/01/19 10:44:48;;;;;;;;;;;11.20;61.90;;;;;;5052804;28;19916;-88
2022/01/19 10:47:17;;;;;;;;;;;11.20;61.60;;;;;;5030529;28;19909;-88
2022/01/19 10:50:00;;;;;;;;;;;11.20;61.30;;;;;;5035897;28;19925;-88
2022/01/19 10:52:27;;;;;;;;;;;11.20;61.10;;;;;;5036154;28;19909;-89
2022/01/19 10:54:53;;;;;;;;;;;11.10;61.20;;;;;;5035116;28;19952;-88
2022/01/19 10:57:18;;;;;;;;;;;11.20;61.20;;;;;;5031247;28;20266;-87
2022/01/19 10:59:45;;;;;;;;;;;11.20;61.20;;;;;;5029204;28;20365;-88
2022/01/19 11:02:12;;;;;;;;;;;11.20;61.30;;;;;;5037736;28;19914;-90
2022/01/19 11:04:39;;;;;;;;;;;11.10;61.30;;;;;;5041341;28;19959;-89
2022/01/19 11:07:07;;;;;;;;;;;11.10;61.10;;;;;;5023218;28;19909;-89
2022/01/19 11:09:57;;;;;;;;;;;11.10;61.40;;;;;;5019888;28;19947;-90
2022/01/19 11:12:26;;;;;;;;;;;11.10;61.10;;;;;;5042205;28;19920;-89
2022/01/19 11:14:53;;;;;;;;;;;11.10;61.00;;;;;;5054492;28;19971;-88
2022/01/19 11:17:18;;;;;;;;;;;11.00;61.00;;;;;;5061109;28;20328;-89
2022/01/19 11:19:44;;;;;;;;;;;11.00;60.90;;;;;;5023051;28;19921;-90
2022/01/19 11:22:23;;;;;;;;;;;11.00;60.90;;;;;;5035617;28;19985;-90
2022/01/19 11:25:02;;;;;;;;;;;11.00;61.10;;;;;;5052974;28;19913;-90
2022/01/19 11:27:34;;;;;;;;;;;10.90;60.90;;;;;;5027836;28;19975;-87
2022/01/19 11:30:07;;;;;;;;;;;10.90;60.90;;;;;;5029728;28;19918;-89
2022/01/19 11:32:32;;;;;;;;;;;10.90;61.20;;;;;;5025357;28;19912;-87
2022/01/19 11:35:02;;;;;;;;;;;10.90;61.30;;;;;;5038158;28;19940;-87
2022/01/19 11:37:34;;;;;;;;;;;10.90;61.10;;;;;;5039763;28;19970;-89
2022/01/19 11:40:05;;;;;;;;;;;11.00;61.00;;;;;;5019754;28;19947;-89
2022/01/19 11:42:30;;;;;;;;;;;10.90;61.10;;;;;;5037274;28;19917;-89
2022/01/19 11:44:56;;;;;;;;;;;11.00;61.10;;;;;;5051871;28;19975;-89
2022/01/19 11:47:29;;;;;;;;;;;11.00;60.90;;;;;;5031961;28;19916;-88
2022/01/19 11:49:54;;;;;;;;;;;11.00;60.90;;;;;;5025901;28;19938;-89
2022/01/19 11:52:22;;;;;;;;;;;10.80;60.50;;;;;;5045198;28;20005;-89
2022/01/19 11:54:49;;;;;;;;;;;10.90;60.60;;;;;;5043584;28;20384;-88
2022/01/19 11:57:16;;;;;;;;;;;10.90;60.80;;;;;;5033961;28;20011;-89
2022/01/19 11:59:47;;;;;;;;;;;10.90;60.80;;;;;;5030602;28;19916;-89
2022/01/19 12:02:26;;;;;;;;;;;10.90;60.60;;;;;;5040432;28;19913;-89
2022/01/19 12:04:54;;;;;;;;;;;11.00;60.90;;;;;;5027671;28;19917;-90
2022/01/19 12:07:32;;;;;;;;;;;11.00;61.00;;;;;;5024356;28;20007;-89
2022/01/19 12:09:58;;;;;;;;;;;11.00;61.10;;;;;;5038132;28;20283;-90
2022/01/19 12:12:27;;;;;;;;;;;11.00;60.80;;;;;;5025347;28;19917;-90
2022/01/19 12:14:52;;;;;;;;;;;11.00;60.60;;;;;;5029744;28;20268;-87
2022/01/19 12:17:28;;;;;;;;;;;11.10;60.70;;;;;;5022773;28;19909;-87
2022/01/19 12:19:55;;;;;;;;;;;11.10;60.90;;;;;;5041311;28;19925;-88
2022/01/19 12:22:20;;;;;;;;;;;11.10;61.00;;;;;;5043260;28;20291;-88
2022/01/19 12:24:59;;;;;;;;;;;11.20;60.90;;;;;;5020349;28;20055;-89
2022/01/19 12:27:28;;;;;;;;;;;11.20;60.60;;;;;;5030309;28;19963;-93
2022/01/19 12:30:03;;;;;;;;;;;11.10;60.40;;;;;;5024251;28;19917;-88
2022/01/19 12:32:34;;;;;;;;;;;11.10;60.30;;;;;;5050340;28;20292;-88
2022/01/19 12:35:10;;;;;;;;;;;11.10;60.50;;;;;;5029385;28;19924;-87
2022/01/19 12:37:37;;;;;;;;;;;11.20;60.70;;;;;;5026131;28;19921;-88
2022/01/19 12:40:24;;;;;;;;;;;11.10;60.00;;;;;;5042549;28;19913;-90
2022/01/19 12:42:54;;;;;;;;;;;11.10;60.20;;;;;;5026385;28;19927;-88
2022/01/19 12:45:27;;;;;;;;;;;11.20;60.50;;;;;;5025387;28;19917;-90
2022/01/19 12:48:06;;;;;;;;;;;11.20;60.50;;;;;;5040359;28;20440;-89
2022/01/19 12:50:32;;;;;;;;;;;11.20;60.50;;;;;;5029097;28;19913;-89
2022/01/19 12:52:59;;;;;;;;;;;11.20;60.50;;;;;;5026023;28;19944;-89
2022/01/19 12:55:27;;;;;;;;;;;11.20;60.60;;;;;;5025818;28;20537;-87
2022/01/19 12:57:54;;;;;;;;;;;11.20;60.40;;;;;;5024699;28;19925;-88
2022/01/19 13:00:25;;;;;;;;;;;11.20;60.40;;;;;;5011175;28;19921;-90
2022/01/19 13:02:50;;;;;;;;;;;11.20;60.40;;;;;;5051609;28;20395;-90
2022/01/19 13:05:18;;;;;;;;;;;11.30;60.70;;;;;;5030252;28;19921;-89
2022/01/19 13:07:45;;;;;;;;;;;11.20;60.30;;;;;;5026214;28;19992;-89
2022/01/19 13:13:10;;;;;;;;;;;11.30;60.10;;;;;;5046921;28;19928;-89
2022/01/19 13:15:38;;;;;;;;;;;11.30;60.20;;;;;;5027859;28;19917;-90
2022/01/19 13:18:04;;;;;;;;;;;11.30;60.00;;;;;;5048148;28;19917;-90
2022/01/19 13:20:55;;;;;;;;;;;11.30;59.90;;;;;;5033804;28;19935;-90
2022/01/19 13:23:21;;;;;;;;;;;11.30;60.00;;;;;;5020789;28;19917;-89
2022/01/19 13:26:05;;;;;;;;;;;11.30;60.00;;;;;;5059577;28;19915;-91
2022/01/19 13:28:32;;;;;;;;;;;11.30;60.20;;;;;;5020745;28;19928;-89
2022/01/19 13:31:14;;;;;;;;;;;11.40;60.20;;;;;;5019342;28;19917;-89
2022/01/19 13:33:40;;;;;;;;;;;11.40;60.10;;;;;;5035870;28;19926;-89
2022/01/19 13:36:06;;;;;;;;;;;11.40;60.00;;;;;;5034409;28;19917;-89
2022/01/19 13:38:31;;;;;;;;;;;11.30;59.60;;;;;;5039605;28;19920;-88
2022/01/19 13:41:09;;;;;;;;;;;11.30;59.70;;;;;;5033412;28;20339;-90
2022/01/19 13:43:37;;;;;;;;;;;11.20;59.50;;;;;;5039663;28;20001;-89
2022/01/19 13:46:13;;;;;;;;;;;11.20;59.80;;;;;;5051697;28;20426;-88
2022/01/19 13:48:47;;;;;;;;;;;11.20;59.90;;;;;;5055614;28;20023;-88
2022/01/19 13:51:15;;;;;;;;;;;11.20;60.00;;;;;;5032748;28;19916;-90
2022/01/19 13:53:50;;;;;;;;;;;11.20;60.00;;;;;;5046194;28;19928;-89
2022/01/19 13:56:23;;;;;;;;;;;11.10;60.00;;;;;;5048608;28;19913;-88
2022/01/19 13:59:00;;;;;;;;;;;11.10;59.90;;;;;;5021162;28;19982;-89
2022/01/19 14:01:39;;;;;;;;;;;11.10;60.10;;;;;;5028390;28;19917;-90
2022/01/19 14:04:09;;;;;;;;;;;11.10;60.20;;;;;;5049286;28;20451;-88
2022/01/19 14:06:36;;;;;;;;;;;11.10;60.30;;;;;;5022406;28;19913;-89
2022/01/19 14:09:06;;;;;;;;;;;11.10;60.20;;;;;;5035662;28;19955;-88
2022/01/19 14:11:32;;;;;;;;;;;11.00;60.00;;;;;;5043006;28;19981;-90
2022/01/19 14:14:02;;;;;;;;;;;11.00;60.10;;;;;;5025490;28;20394;-88
2022/01/19 14:16:38;;;;;;;;;;;11.00;60.20;;;;;;5036291;28;19931;-87
2022/01/19 14:19:13;;;;;;;;;;;10.90;60.20;;;;;;5057721;28;19923;-90
2022/01/19 14:21:55;;;;;;;;;;;10.80;60.50;;;;;;5042507;28;19909;-88
2022/01/19 14:24:21;;;;;;;;;;;10.80;60.60;;;;;;5041856;28;20268;-88
2022/01/19 14:26:55;;;;;;;;;;;10.80;60.50;;;;;;5026243;28;19955;-88
2022/01/19 14:29:21;;;;;;;;;;;10.70;60.30;;;;;;5018244;28;20412;-87
2022/01/19 14:31:57;;;;;;;;;;;10.70;60.50;;;;;;5038009;28;19948;-87
2022/01/19 14:34:37;;;;;;;;;;;10.60;60.40;;;;;;5021139;28;19956;-88
2022/01/19 14:37:16;;;;;;;;;;;10.60;60.40;;;;;;5051784;28;19963;-89
2022/01/19 14:39:46;;;;;;;;;;;10.50;60.40;;;;;;5023674;28;20023;-88
2022/01/19 14:42:12;;;;;;;;;;;10.50;60.50;;;;;;5051511;28;19923;-88
2022/01/19 14:44:42;;;;;;;;;;;10.50;60.60;;;;;;5028389;28;20010;-88
2022/01/19 14:47:25;;;;;;;;;;;10.50;60.60;;;;;;5037084;28;19917;-88
2022/01/19 14:49:51;;;;;;;;;;;10.50;60.70;;;;;;5026345;28;19928;-87
2022/01/19 14:52:18;;;;;;;;;;;10.40;60.70;;;;;;5042044;28;19917;-88
2022/01/19 14:54:43;;;;;;;;;;;10.50;60.80;;;;;;5057415;28;19916;-89
2022/01/19 14:57:09;;;;;;;;;;;10.50;60.70;;;;;;5048133;28;19981;-90
2022/01/19 14:59:38;;;;;;;;;;;10.50;60.60;;;;;;5040773;28;19968;-91
2022/01/19 15:02:04;;;;;;;;;;;10.50;60.70;;;;;;5019732;28;19917;-88
2022/01/19 15:04:29;;;;;;;;;;;10.50;60.60;;;;;;5020164;28;20007;-89
2022/01/19 15:06:59;;;;;;;;;;;10.50;60.60;;;;;;5021947;28;20241;-90
2022/01/19 15:09:24;;;;;;;;;;;10.50;60.60;;;;;;5023474;28;20454;-90
2022/01/19 15:11:51;;;;;;;;;;;10.60;60.50;;;;;;5048909;28;19921;-89
2022/01/19 15:14:17;;;;;;;;;;;10.60;60.60;;;;;;5018172;28;19921;-88
2022/01/19 15:16:43;;;;;;;;;;;10.70;60.80;;;;;;5017346;28;19937;-89
2022/01/19 15:19:08;;;;;;;;;;;10.70;60.50;;;;;;5053671;28;19919;-90
2022/01/19 15:21:34;;;;;;;;;;;10.60;60.20;;;;;;5051264;28;19911;-92
2022/01/19 15:23:59;;;;;;;;;;;10.70;60.40;;;;;;5042478;28;19932;-93
2022/01/19 15:26:26;;;;;;;;;;;10.70;60.40;;;;;;5049972;28;20364;-92
2022/01/19 15:28:51;;;;;;;;;;;10.70;60.30;;;;;;5031098;28;19925;-92
2022/01/19 15:31:17;;;;;;;;;;;10.70;60.30;;;;;;5039893;28;20553;-91
2022/01/19 15:33:43;;;;;;;;;;;10.70;60.20;;;;;;5032884;28;19951;-90
2022/01/19 15:36:09;;;;;;;;;;;10.80;59.80;;;;;;5032273;28;20292;-91
2022/01/19 15:38:35;;;;;;;;;;;10.70;59.80;;;;;;5027845;28;19925;-91
2022/01/19 15:41:01;;;;;;;;;;;10.70;59.60;;;;;;5041925;28;19982;-93
2022/01/19 15:43:27;;;;;;;;;;;10.70;59.90;;;;;;5036260;28;19913;-91
2022/01/19 15:45:52;;;;;;;;;;;10.70;60.00;;;;;;5021596;28;20012;-93
2022/01/19 15:48:18;;;;;;;;;;;10.70;60.20;;;;;;5023818;28;19916;-92
2022/01/19 15:50:45;;;;;;;;;;;10.70;60.10;;;;;;5042631;28;20288;-92
2022/01/19 15:53:12;;;;;;;;;;;10.70;60.20;;;;;;5024544;28;19913;-93
2022/01/19 15:55:37;;;;;;;;;;;10.70;60.20;;;;;;5040289;28;19956;-93